Time;durP1;ratioP1;P1;durP2;ratioP2;P2;SDS_P1;SDS_P2;PMS_P1;PMS_P2;Temp;Humidity;BMP_temperature;BMP_pressure;BME280_temperature;BME280_humidity;BME280_pressure;Samples;Min_cycle;Max_cycle;Signal;HPM_P1;HPM_P2
2021/12/11 00:00:58;;;;;;;3.23;1.47;;;8.70;73.30;;;-142.21;100.00;112049.66;4996019;28;20882;-80
2021/12/11 00:03:30;;;;;;;2.23;1.50;;;8.60;73.30;;;-142.21;100.00;112049.66;5002453;28;20443;-79
2021/12/11 00:06:03;;;;;;;2.17;1.40;;;8.60;73.00;;;-142.21;100.00;112049.66;4995779;28;20470;-79
2021/12/11 00:08:33;;;;;;;1.50;1.40;;;8.60;72.80;;;-142.21;100.00;112049.66;4996604;28;20501;-79
2021/12/11 00:11:09;;;;;;;1.23;1.13;;;8.60;72.80;;;-142.21;100.00;112049.66;5002046;28;20565;-78
2021/12/11 00:13:40;;;;;;;1.70;1.40;;;8.60;73.60;;;-142.21;100.00;112049.66;5004931;28;20462;-80
2021/12/11 00:16:12;;;;;;;1.67;1.50;;;8.60;72.50;;;-142.21;100.00;112049.66;5006603;28;20514;-79
2021/12/11 00:18:41;;;;;;;2.47;1.70;;;8.50;72.20;;;-142.21;100.00;112049.66;4996989;28;20566;-78
2021/12/11 00:21:15;;;;;;;1.87;1.63;;;8.50;72.50;;;-142.21;100.00;112049.66;4997700;28;20855;-79
2021/12/11 00:23:52;;;;;;;1.47;1.30;;;8.60;72.40;;;-142.21;100.00;112049.66;4996289;28;20536;-79
2021/12/11 00:26:30;;;;;;;1.83;1.50;;;8.60;72.10;;;-142.21;100.00;112049.66;4995758;28;20462;-80
2021/12/11 00:28:59;;;;;;;1.80;1.23;;;8.60;72.90;;;-142.21;100.00;112049.66;5014379;28;20453;-79
2021/12/11 00:31:28;;;;;;;4.70;3.13;;;8.60;72.00;;;-142.21;100.00;112049.66;5012219;28;20851;-79
2021/12/11 00:33:57;;;;;;;2.23;1.70;;;8.60;72.00;;;-142.21;100.00;112049.66;4995103;28;20451;-79
2021/12/11 00:36:32;;;;;;;1.53;1.37;;;8.60;71.90;;;-142.21;100.00;112049.66;4995169;28;20486;-79
2021/12/11 00:39:07;;;;;;;1.73;1.50;;;8.50;71.90;;;-142.21;100.00;112049.66;4997203;28;20871;-79
2021/12/11 00:41:37;;;;;;;1.77;1.67;;;8.50;72.00;;;-142.21;100.00;112049.66;4996426;28;20474;-79
2021/12/11 00:44:05;;;;;;;1.33;1.23;;;8.50;71.90;;;-142.21;100.00;112049.66;5007346;28;20442;-79
2021/12/11 00:46:34;;;;;;;1.70;1.60;;;8.50;71.90;;;-142.21;100.00;112049.66;5015183;28;21120;-79
2021/12/11 00:49:11;;;;;;;1.40;1.30;;;8.60;72.00;;;-142.21;100.00;112049.66;5009776;28;20486;-79
2021/12/11 00:51:39;;;;;;;1.80;1.70;;;8.60;72.10;;;-142.21;100.00;112049.66;4996095;28;20435;-79
2021/12/11 00:54:07;;;;;;;2.00;1.67;;;8.50;71.80;;;-142.21;100.00;112049.66;4999652;28;20481;-79
2021/12/11 00:56:41;;;;;;;3.07;1.63;;;8.50;72.20;;;-142.21;100.00;112049.66;4998506;28;20568;-79
2021/12/11 00:59:13;;;;;;;3.13;1.60;;;8.50;71.90;;;-142.21;100.00;112049.66;5016031;28;20451;-79
2021/12/11 01:01:50;;;;;;;1.60;1.50;;;8.60;71.90;;;-142.21;100.00;112049.66;5007387;28;20447;-79
2021/12/11 01:04:25;;;;;;;2.03;1.70;;;8.50;72.00;;;-142.21;100.00;112049.66;4996549;28;20521;-79
2021/12/11 01:06:57;;;;;;;1.73;1.63;;;8.50;71.90;;;-142.21;100.00;112049.66;5012233;28;20462;-79
2021/12/11 01:09:30;;;;;;;2.63;1.60;;;8.60;72.00;;;-142.21;100.00;112049.66;5013975;28;20438;-79
2021/12/11 01:12:06;;;;;;;1.87;1.60;;;8.60;72.00;;;-142.21;100.00;112049.66;5015637;28;20476;-79
2021/12/11 01:14:49;;;;;;;1.70;1.60;;;8.60;72.10;;;-142.21;100.00;112049.66;5001705;28;20473;-80
2021/12/11 01:17:26;;;;;;;1.60;1.50;;;8.60;72.00;;;-142.21;100.00;112049.66;5013991;28;20565;-80
2021/12/11 01:20:04;;;;;;;1.90;1.60;;;8.60;72.00;;;-142.21;100.00;112049.66;4996683;28;20461;-80
2021/12/11 01:22:37;;;;;;;2.20;2.00;;;8.50;71.90;;;-142.21;100.00;112049.66;4995329;28;20481;-80
2021/12/11 01:25:13;;;;;;;2.20;2.00;;;8.50;71.90;;;-142.21;100.00;112049.66;5002644;28;20579;-80
2021/12/11 01:27:46;;;;;;;1.80;1.70;;;8.50;72.10;;;-142.21;100.00;112049.66;4995533;28;20442;-80
2021/12/11 01:30:19;;;;;;;2.70;1.87;;;8.50;72.00;;;-142.21;100.00;112049.66;5016910;28;20505;-80
2021/12/11 01:32:47;;;;;;;2.27;1.83;;;8.40;72.00;;;-142.21;100.00;112049.66;5014723;28;20517;-80
2021/12/11 01:35:17;;;;;;;2.33;1.90;;;8.50;72.20;;;-142.21;100.00;112049.66;5004496;28;20483;-80
2021/12/11 01:37:46;;;;;;;1.90;1.70;;;8.50;72.00;;;-142.21;100.00;112049.66;5004009;28;20894;-80
2021/12/11 01:40:18;;;;;;;2.20;2.00;;;8.50;72.00;;;-142.21;100.00;112049.66;5015610;28;20492;-80
2021/12/11 01:42:48;;;;;;;1.90;1.80;;;8.50;71.90;;;-142.21;100.00;112049.66;5013138;28;20497;-80
2021/12/11 01:45:18;;;;;;;2.20;1.77;;;8.50;71.90;;;-142.21;100.00;112049.66;5013882;28;20227;-80
2021/12/11 01:47:48;;;;;;;2.97;1.73;;;8.50;71.90;;;-142.21;100.00;112049.66;5014620;28;20457;-80
2021/12/11 01:50:25;;;;;;;1.77;1.67;;;8.50;71.90;;;-142.21;100.00;112049.66;5014762;28;20434;-80
2021/12/11 01:52:58;;;;;;;2.20;2.00;;;8.50;72.00;;;-142.21;100.00;112049.66;5014353;28;20528;-80
2021/12/11 01:55:32;;;;;;;1.90;1.73;;;8.50;71.90;;;-142.21;100.00;112049.66;5002891;28;20851;-80
2021/12/11 01:58:04;;;;;;;1.80;1.70;;;8.50;71.90;;;-142.21;100.00;112049.66;4994889;28;21007;-79
2021/12/11 02:00:38;;;;;;;2.20;2.00;;;8.50;71.80;;;-142.21;100.00;112049.66;5011011;28;20477;-79
2021/12/11 02:03:12;;;;;;;1.77;1.67;;;8.50;71.90;;;-142.21;100.00;112049.66;5014522;28;20430;-80
2021/12/11 02:05:42;;;;;;;2.23;2.00;;;8.50;71.90;;;-142.21;100.00;112049.66;5001345;28;20493;-80
2021/12/11 02:08:14;;;;;;;1.83;1.60;;;8.50;71.80;;;-142.21;100.00;112049.66;4994231;28;20481;-79
2021/12/11 02:10:47;;;;;;;2.20;2.00;;;8.50;71.90;;;-142.21;100.00;112049.66;4994647;28;20486;-79
2021/12/11 02:13:24;;;;;;;1.93;1.73;;;8.50;71.90;;;-142.21;100.00;112049.66;4993962;28;20478;-79
2021/12/11 02:15:53;;;;;;;2.20;2.00;;;8.50;72.40;;;-142.21;100.00;112049.66;4994313;28;20564;-78
2021/12/11 02:18:32;;;;;;;2.67;1.97;;;8.50;71.40;;;-142.21;100.00;112049.66;4994199;28;20491;-80
2021/12/11 02:21:05;;;;;;;2.07;1.80;;;8.50;71.40;;;-142.21;100.00;112049.66;4994878;28;20522;-79
2021/12/11 02:23:34;;;;;;;2.10;1.90;;;8.40;71.10;;;-142.21;100.00;112049.66;4993649;28;20537;-80
2021/12/11 02:26:08;;;;;;;2.20;2.00;;;8.40;72.30;;;-142.21;100.00;112049.66;4993356;28;20478;-80
2021/12/11 02:28:42;;;;;;;2.23;2.03;;;8.40;71.30;;;-142.21;100.00;112049.66;4993934;28;20463;-80
2021/12/11 02:31:17;;;;;;;2.47;2.27;;;8.40;71.70;;;-142.21;100.00;112049.66;4993914;28;20489;-80
2021/12/11 02:33:52;;;;;;;3.13;2.00;;;8.40;71.80;;;-142.21;100.00;112049.66;4998610;28;20438;-79
2021/12/11 02:36:25;;;;;;;2.73;2.43;;;8.30;71.70;;;-142.21;100.00;112049.66;4993577;28;20541;-80
2021/12/11 02:39:04;;;;;;;1.90;1.80;;;8.30;71.70;;;-142.21;100.00;112049.66;5013164;28;20478;-78
2021/12/11 02:41:39;;;;;;;2.60;2.40;;;8.30;72.00;;;-142.21;100.00;112049.66;5013054;28;20492;-80
2021/12/11 02:44:13;;;;;;;2.30;2.10;;;8.20;71.60;;;-142.21;100.00;112049.66;5012007;28;20987;-79
2021/12/11 02:46:47;;;;;;;2.97;2.20;;;8.20;71.60;;;-142.21;100.00;112049.66;5013128;28;20438;-80
2021/12/11 02:49:21;;;;;;;2.60;2.40;;;8.10;71.60;;;-142.21;100.00;112049.66;5012927;28;20846;-80
2021/12/11 02:51:54;;;;;;;2.47;2.27;;;8.10;72.20;;;-142.21;100.00;112049.66;5011657;28;20522;-80
2021/12/11 02:54:31;;;;;;;2.73;2.40;;;8.10;72.30;;;-142.21;100.00;112049.66;5013129;28;20503;-80
2021/12/11 02:57:06;;;;;;;2.60;2.40;;;8.10;72.30;;;-142.21;100.00;112049.66;5008633;28;20474;-79
2021/12/11 02:59:41;;;;;;;3.03;2.43;;;8.00;71.90;;;-142.21;100.00;112049.66;5012537;28;20867;-80
2021/12/11 03:02:15;;;;;;;3.00;2.70;;;8.00;71.90;;;-142.21;100.00;112049.66;5007741;28;20457;-80
2021/12/11 03:04:49;;;;;;;2.70;2.50;;;7.90;72.40;;;-142.21;100.00;112049.66;4994204;28;20509;-79
2021/12/11 03:07:20;;;;;;;2.90;2.70;;;7.90;72.50;;;-142.21;100.00;112049.66;4993253;28;20481;-80
2021/12/11 03:09:53;;;;;;;2.73;2.50;;;7.80;72.50;;;-142.21;100.00;112049.66;4992724;28;20443;-80
2021/12/11 03:12:23;;;;;;;2.60;2.40;;;7.80;72.70;;;-142.21;100.00;112049.66;5000403;28;20473;-80
2021/12/11 03:14:51;;;;;;;3.20;2.90;;;7.80;72.20;;;-142.21;100.00;112049.66;4998612;28;20493;-80
2021/12/11 03:17:23;;;;;;;3.13;2.83;;;7.80;72.50;;;-142.21;100.00;112049.66;4992942;28;20581;-80
2021/12/11 03:19:52;;;;;;;2.83;2.40;;;7.70;72.40;;;-142.21;100.00;112049.66;4999274;28;20665;-80
2021/12/11 03:22:30;;;;;;;2.80;2.60;;;7.70;72.20;;;-142.21;100.00;112049.66;5006399;28;20459;-80
2021/12/11 03:24:59;;;;;;;2.90;2.60;;;7.70;72.90;;;-142.21;100.00;112049.66;4992626;28;20518;-79
2021/12/11 03:27:27;;;;;;;2.53;2.33;;;7.70;73.60;;;-142.21;100.00;112049.66;4993402;28;20454;-80
2021/12/11 03:29:55;;;;;;;2.67;2.47;;;7.70;73.40;;;-142.21;100.00;112049.66;4992569;28;20265;-81
2021/12/11 03:32:23;;;;;;;2.50;2.30;;;7.70;73.00;;;-142.21;100.00;112049.66;5006722;28;20942;-80
2021/12/11 03:34:51;;;;;;;2.45;2.25;;;7.70;73.10;;;-142.21;100.00;112049.66;5012600;28;20261;-80
2021/12/11 03:37:22;;;;;;;2.47;2.27;;;7.60;73.40;;;-142.21;100.00;112049.66;4996056;28;20231;-78
2021/12/11 03:39:54;;;;;;;2.70;2.50;;;7.60;73.40;;;-142.21;100.00;112049.66;4992447;28;20525;-80
2021/12/11 03:42:30;;;;;;;2.83;2.63;;;7.60;73.60;;;-142.21;100.00;112049.66;4993227;28;20525;-80
2021/12/11 03:45:01;;;;;;;2.60;2.40;;;7.60;73.50;;;-142.21;100.00;112049.66;4992474;28;20194;-80
2021/12/11 03:47:34;;;;;;;2.63;2.42;;;7.60;73.10;;;-142.21;100.00;112049.66;4992919;28;20486;-80
2021/12/11 03:50:04;;;;;;;2.70;2.50;;;7.60;73.60;;;-142.21;100.00;112049.66;4992536;28;20276;-80
2021/12/11 03:52:31;;;;;;;2.80;2.60;;;7.60;73.30;;;-142.21;100.00;112049.66;4999952;28;20478;-80
2021/12/11 03:54:58;;;;;;;2.38;2.17;;;7.60;73.30;;;-142.21;100.00;112049.66;5011512;28;20496;-80
2021/12/11 03:57:31;;;;;;;3.47;2.50;;;7.50;73.30;;;-142.21;100.00;112049.66;5012345;28;20314;-80
2021/12/11 03:59:59;;;;;;;2.83;2.60;;;7.50;73.80;;;-142.21;100.00;112049.66;5012118;28;20435;-80
2021/12/11 04:02:32;;;;;;;2.50;2.30;;;7.50;73.60;;;-142.21;100.00;112049.66;5005443;28;20457;-80
2021/12/11 04:05:04;;;;;;;2.57;2.33;;;7.50;73.80;;;-142.21;100.00;112049.66;4991952;28;20435;-80
2021/12/11 04:07:37;;;;;;;3.00;2.80;;;7.60;73.70;;;-142.21;100.00;112049.66;4992736;28;20518;-80
2021/12/11 04:10:10;;;;;;;2.73;2.53;;;7.50;73.90;;;-142.21;100.00;112049.66;4992023;28;20490;-80
2021/12/11 04:12:39;;;;;;;2.90;2.70;;;7.60;73.90;;;-142.21;100.00;112049.66;5000380;28;20482;-79
2021/12/11 04:15:10;;;;;;;3.30;3.00;;;7.60;73.80;;;-142.21;100.00;112049.66;5011787;28;20917;-80
2021/12/11 04:17:38;;;;;;;3.10;2.90;;;7.50;74.00;;;-142.21;100.00;112049.66;5012441;28;20481;-80
2021/12/11 04:20:10;;;;;;;2.97;2.77;;;7.50;73.80;;;-142.21;100.00;112049.66;5011453;28;20294;-79
2021/12/11 04:22:38;;;;;;;3.50;3.20;;;7.50;74.20;;;-142.21;100.00;112049.66;5004354;28;20527;-80
2021/12/11 04:25:09;;;;;;;2.90;2.70;;;7.50;74.20;;;-142.21;100.00;112049.66;4996430;28;20569;-80
2021/12/11 04:27:39;;;;;;;3.13;2.93;;;7.50;74.10;;;-142.21;100.00;112049.66;5011935;28;20522;-80
2021/12/11 04:30:09;;;;;;;3.50;3.20;;;7.50;73.90;;;-142.21;100.00;112049.66;5012198;28;20478;-80
2021/12/11 04:32:38;;;;;;;3.17;2.97;;;7.50;74.10;;;-142.21;100.00;112049.66;4994197;28;20199;-80
2021/12/11 04:35:08;;;;;;;3.25;2.95;;;7.50;74.40;;;-142.21;100.00;112049.66;5012071;28;20504;-79
2021/12/11 04:37:37;;;;;;;2.87;2.67;;;7.50;74.30;;;-142.21;100.00;112049.66;5008662;28;20220;-80
2021/12/11 04:40:12;;;;;;;3.53;3.22;;;7.50;74.30;;;-142.21;100.00;112049.66;4992384;28;20950;-80
2021/12/11 04:42:52;;;;;;;3.50;3.20;;;7.40;74.40;;;-142.21;100.00;112049.66;4991377;28;20242;-80
2021/12/11 04:45:26;;;;;;;3.53;3.15;;;7.50;74.50;;;-142.21;100.00;112049.66;4994793;28;20435;-80
2021/12/11 04:47:59;;;;;;;3.10;2.90;;;7.50;74.30;;;-142.21;100.00;112049.66;4996185;28;20188;-80
2021/12/11 04:50:37;;;;;;;3.50;3.20;;;7.50;74.00;;;-142.21;100.00;112049.66;4995265;28;20440;-80
2021/12/11 04:53:17;;;;;;;4.37;3.33;;;7.60;74.40;;;-142.21;100.00;112049.66;5005850;28;20438;-79
2021/12/11 04:55:58;;;;;;;3.40;3.10;;;7.60;74.40;;;-142.21;100.00;112049.66;5014995;28;20442;-80
2021/12/11 04:58:50;;;;;;;3.35;3.05;;;7.50;73.90;;;-142.21;100.00;112049.66;5015470;28;20474;-79
2021/12/11 05:01:36;;;;;;;3.73;3.03;;;7.50;74.20;;;-142.21;100.00;112049.66;5000958;28;20230;-80
2021/12/11 05:04:20;;;;;;;4.10;3.70;;;7.50;74.10;;;-142.21;100.00;112049.66;5000001;28;20455;-79
2021/12/11 05:06:57;;;;;;;3.70;3.40;;;7.50;74.40;;;-142.21;100.00;112049.66;4995004;28;20438;-80
2021/12/11 05:09:34;;;;;;;3.83;3.53;;;7.50;74.10;;;-142.21;100.00;112049.66;5015085;28;20434;-79
2021/12/11 05:12:15;;;;;;;3.80;3.50;;;7.50;74.20;;;-142.21;100.00;112049.66;5014856;28;20806;-80
2021/12/11 05:14:46;;;;;;;3.60;3.30;;;7.50;74.60;;;-142.21;100.00;112049.66;5014606;28;20478;-80
2021/12/11 05:17:14;;;;;;;3.87;3.57;;;7.50;74.40;;;-142.21;100.00;112049.66;5015014;28;20521;-80
2021/12/11 05:19:43;;;;;;;4.00;3.70;;;7.50;74.40;;;-142.21;100.00;112049.66;5014405;28;20910;-80
2021/12/11 05:22:12;;;;;;;3.80;3.47;;;7.60;74.40;;;-142.21;100.00;112049.66;5012279;28;20207;-80
2021/12/11 05:24:47;;;;;;;4.27;3.87;;;7.60;74.30;;;-142.21;100.00;112049.66;4994862;28;20519;-80
2021/12/11 05:27:15;;;;;;;3.87;3.57;;;7.60;74.50;;;-142.21;100.00;112049.66;4995612;28;20827;-80
2021/12/11 05:29:44;;;;;;;4.20;3.90;;;7.60;74.10;;;-142.21;100.00;112049.66;4996617;28;20479;-79
2021/12/11 05:32:16;;;;;;;3.78;3.47;;;7.60;74.10;;;-142.21;100.00;112049.66;4995239;28;20457;-80
2021/12/11 05:34:44;;;;;;;4.53;3.90;;;7.70;74.00;;;-142.21;100.00;112049.66;4994726;28;20231;-80
2021/12/11 05:37:12;;;;;;;4.57;4.17;;;7.70;74.00;;;-142.21;100.00;112049.66;4994559;28;20878;-79
2021/12/11 05:39:40;;;;;;;4.90;4.50;;;7.80;74.00;;;-142.21;100.00;112049.66;5007869;28;20564;-80
2021/12/11 05:42:08;;;;;;;4.50;4.15;;;7.80;73.70;;;-142.21;100.00;112049.66;5012899;28;20481;-80
2021/12/11 05:44:37;;;;;;;4.73;4.33;;;7.90;73.80;;;-142.21;100.00;112049.66;5014672;28;20251;-80
2021/12/11 05:47:06;;;;;;;4.77;4.37;;;7.90;73.50;;;-142.21;100.00;112049.66;4997280;28;20482;-80
2021/12/11 05:49:34;;;;;;;5.13;4.63;;;8.00;73.50;;;-142.21;100.00;112049.66;4994845;28;20534;-80
2021/12/11 05:52:06;;;;;;;4.97;4.57;;;8.00;73.30;;;-142.21;100.00;112049.66;4994288;28;20463;-80
2021/12/11 05:54:34;;;;;;;5.47;4.93;;;8.00;73.30;;;-142.21;100.00;112049.66;4995041;28;20454;-78
2021/12/11 05:57:09;;;;;;;4.97;4.57;;;8.00;73.20;;;-142.21;100.00;112049.66;4994106;28;20509;-80
2021/12/11 05:59:38;;;;;;;6.00;5.40;;;8.00;73.20;;;-142.21;100.00;112049.66;4994411;28;20482;-80
2021/12/11 06:02:28;;;;;;;5.43;4.93;;;8.00;73.20;;;-142.21;100.00;112049.66;4994407;28;20535;-80
2021/12/11 06:04:59;;;;;;;5.68;5.18;;;8.00;73.40;;;-142.21;100.00;112049.66;5014100;28;20493;-80
2021/12/11 06:07:30;;;;;;;5.93;5.43;;;8.00;73.40;;;-142.21;100.00;112049.66;5013684;28;20305;-80
2021/12/11 06:10:04;;;;;;;5.72;5.22;;;8.00;73.40;;;-142.21;100.00;112049.66;5014261;28;20517;-78
2021/12/11 06:12:32;;;;;;;5.97;5.37;;;8.00;73.40;;;-142.21;100.00;112049.66;5012693;28;20238;-77
2021/12/11 06:15:00;;;;;;;6.77;6.07;;;8.00;73.90;;;-142.21;100.00;112049.66;5014170;28;20465;-80
2021/12/11 06:17:32;;;;;;;6.20;5.67;;;8.00;73.10;;;-142.21;100.00;112049.66;5013119;28;20537;-79
2021/12/11 06:20:01;;;;;;;6.27;5.67;;;8.00;73.30;;;-142.21;100.00;112049.66;5013754;28;20426;-80
2021/12/11 06:22:33;;;;;;;6.30;5.70;;;8.00;73.30;;;-142.21;100.00;112049.66;5009002;28;20455;-80
2021/12/11 06:25:06;;;;;;;6.93;6.30;;;8.00;73.30;;;-142.21;100.00;112049.66;4993783;28;20483;-80
2021/12/11 06:27:36;;;;;;;6.83;6.23;;;8.10;73.20;;;-142.21;100.00;112049.66;4993776;28;20470;-79
2021/12/11 06:30:06;;;;;;;7.10;6.50;;;8.10;73.10;;;-142.21;100.00;112049.66;4993892;28;20489;-80
2021/12/11 06:32:36;;;;;;;6.88;6.25;;;8.10;73.20;;;-142.21;100.00;112049.66;4992751;28;20447;-80
2021/12/11 06:35:10;;;;;;;7.03;6.43;;;8.10;73.00;;;-142.21;100.00;112049.66;4993708;28;20248;-79
2021/12/11 06:37:37;;;;;;;6.77;6.03;;;8.00;73.20;;;-142.21;100.00;112049.66;4993220;28;20451;-80
2021/12/11 06:40:07;;;;;;;6.90;6.30;;;8.00;73.20;;;-142.21;100.00;112049.66;4994063;28;20479;-78
2021/12/11 06:42:34;;;;;;;6.43;5.87;;;8.10;73.20;;;-142.21;100.00;112049.66;4989983;28;20452;-80
2021/12/11 06:45:01;;;;;;;6.93;6.33;;;8.10;73.00;;;-142.21;100.00;112049.66;4974164;28;20495;-79
2021/12/11 06:47:28;;;;;;;6.57;6.00;;;8.00;72.70;;;-142.21;100.00;112049.66;4974049;28;20436;-80
2021/12/11 06:49:58;;;;;;;7.77;7.07;;;8.00;73.00;;;-142.21;100.00;112049.66;4974081;28;20948;-78
2021/12/11 06:52:27;;;;;;;7.10;6.50;;;8.00;73.00;;;-142.21;100.00;112049.66;4979587;28;20483;-79
2021/12/11 06:54:55;;;;;;;7.70;7.00;;;8.00;72.90;;;-142.21;100.00;112049.66;4992780;28;20458;-80
2021/12/11 06:57:23;;;;;;;8.17;7.43;;;8.10;73.00;;;-142.21;100.00;112049.66;4993604;28;20853;-80
2021/12/11 06:59:51;;;;;;;7.97;7.20;;;8.10;73.10;;;-142.21;100.00;112049.66;4992814;28;20498;-79
2021/12/11 07:02:21;;;;;;;8.33;7.53;;;8.10;73.00;;;-142.21;100.00;112049.66;4992211;28;20843;-80
2021/12/11 07:04:50;;;;;;;8.63;7.77;;;8.10;73.00;;;-142.21;100.00;112049.66;4973324;28;20956;-79
2021/12/11 07:07:23;;;;;;;8.60;7.80;;;8.20;73.20;;;-142.21;100.00;112049.66;4973498;28;20452;-80
2021/12/11 07:09:53;;;;;;;8.37;7.53;;;8.20;73.00;;;-142.21;100.00;112049.66;4973662;28;20478;-80
2021/12/11 07:12:21;;;;;;;9.20;8.30;;;8.20;73.10;;;-142.21;100.00;112049.66;4988411;28;20494;-79
2021/12/11 07:14:49;;;;;;;9.60;8.70;;;8.10;72.90;;;-142.21;100.00;112049.66;4993002;28;21057;-80
2021/12/11 07:17:17;;;;;;;10.20;9.30;;;8.10;73.10;;;-142.21;100.00;112049.66;4992909;28;20935;-79
2021/12/11 07:19:45;;;;;;;10.27;9.27;;;8.10;73.00;;;-142.21;100.00;112049.66;4993177;28;20526;-80
2021/12/11 07:22:14;;;;;;;9.70;8.90;;;8.10;72.90;;;-142.21;100.00;112049.66;4991461;28;20488;-80
2021/12/11 07:24:47;;;;;;;10.27;9.27;;;8.00;73.00;;;-142.21;100.00;112049.66;5005622;28;20477;-80
2021/12/11 07:27:16;;;;;;;11.13;10.03;;;8.00;73.20;;;-142.21;100.00;112049.66;4993523;28;20447;-80
2021/12/11 07:29:44;;;;;;;10.50;9.50;;;8.00;73.20;;;-142.21;100.00;112049.66;4993220;28;20501;-80
2021/12/11 07:32:13;;;;;;;11.23;10.13;;;8.00;73.20;;;-142.21;100.00;112049.66;5005373;28;20490;-79
2021/12/11 07:34:44;;;;;;;11.10;10.00;;;8.10;73.50;;;-142.21;100.00;112049.66;5012996;28;20501;-80
2021/12/11 07:37:12;;;;;;;12.02;10.82;;;8.10;73.50;;;-142.21;100.00;112049.66;5012201;28;20501;-79
2021/12/11 07:39:40;;;;;;;11.30;10.20;;;8.10;73.50;;;-142.21;100.00;112049.66;5012692;28;20227;-79
2021/12/11 07:42:09;;;;;;;11.93;10.83;;;8.10;73.50;;;-142.21;100.00;112049.66;4999647;28;20530;-78
2021/12/11 07:44:37;;;;;;;11.70;10.60;;;8.10;73.50;;;-142.21;100.00;112049.66;4992546;28;20450;-80
2021/12/11 07:47:06;;;;;;;11.90;10.77;;;8.10;73.60;;;-142.21;100.00;112049.66;4992903;28;20479;-79
2021/12/11 07:49:33;;;;;;;11.83;10.73;;;8.10;73.60;;;-142.21;100.00;112049.66;4992117;28;20530;-80
2021/12/11 07:52:01;;;;;;;12.20;11.03;;;8.10;73.20;;;-142.21;100.00;112049.66;5005941;28;20524;-80
2021/12/11 07:54:28;;;;;;;11.57;10.37;;;8.10;73.10;;;-142.21;100.00;112049.66;5012196;28;20493;-80
2021/12/11 07:56:55;;;;;;;11.90;10.80;;;8.10;73.20;;;-142.21;100.00;112049.66;4999597;28;20446;-80
2021/12/11 07:59:24;;;;;;;12.03;10.93;;;8.20;73.40;;;-142.21;100.00;112049.66;4991509;28;20487;-79
2021/12/11 08:01:54;;;;;;;12.33;11.23;;;8.20;74.30;;;-142.21;100.00;112049.66;5003990;28;20486;-79
2021/12/11 08:04:25;;;;;;;12.60;11.40;;;8.20;73.60;;;-142.21;100.00;112049.66;5001741;28;20508;-78
2021/12/11 08:06:53;;;;;;;13.20;11.87;;;8.20;73.50;;;-142.21;100.00;112049.66;5012206;28;20430;-78
2021/12/11 08:09:23;;;;;;;12.40;11.30;;;8.20;73.30;;;-142.21;100.00;112049.66;5012551;28;20473;-79
2021/12/11 08:11:54;;;;;;;12.70;11.50;;;8.20;73.30;;;-142.21;100.00;112049.66;4996035;28;20479;-80
2021/12/11 08:14:26;;;;;;;11.87;10.77;;;8.20;73.50;;;-142.21;100.00;112049.66;4992449;28;20506;-80
2021/12/11 08:16:58;;;;;;;14.07;12.60;;;8.30;74.40;;;-142.21;100.00;112049.66;5012423;28;20517;-80
2021/12/11 08:19:28;;;;;;;13.60;12.27;;;8.30;73.50;;;-142.21;100.00;112049.66;5014726;28;20506;-80
2021/12/11 08:22:01;;;;;;;13.10;11.90;;;8.30;73.40;;;-142.21;100.00;112049.66;5010290;28;20196;-80
2021/12/11 08:24:29;;;;;;;13.00;11.70;;;8.30;73.50;;;-142.21;100.00;112049.66;4999717;28;20518;-80
2021/12/11 08:27:04;;;;;;;13.27;11.93;;;8.30;73.50;;;-142.21;100.00;112049.66;5015297;28;20453;-80
2021/12/11 08:29:33;;;;;;;13.37;12.03;;;8.40;73.40;;;-142.21;100.00;112049.66;4996024;28;20446;-79
2021/12/11 08:32:01;;;;;;;13.57;12.27;;;8.30;73.20;;;-142.21;100.00;112049.66;5012837;28;20449;-79
2021/12/11 08:34:29;;;;;;;13.80;12.40;;;8.30;72.90;;;-142.21;100.00;112049.66;5015406;28;20614;-79
2021/12/11 08:36:57;;;;;;;12.90;11.70;;;8.30;72.90;;;-142.21;100.00;112049.66;5015721;28;20296;-78
2021/12/11 08:39:27;;;;;;;13.70;12.43;;;8.30;72.90;;;-142.21;100.00;112049.66;5013036;28;21076;-79
2021/12/11 08:41:55;;;;;;;13.27;12.07;;;8.30;72.90;;;-142.21;100.00;112049.66;4995544;28;20482;-77
2021/12/11 08:44:24;;;;;;;14.67;13.27;;;8.40;72.60;;;-142.21;100.00;112049.66;4995948;28;20529;-79
2021/12/11 08:46:57;;;;;;;14.10;12.77;;;8.40;72.10;;;-142.21;100.00;112049.66;4995519;28;20479;-79
2021/12/11 08:49:30;;;;;;;12.80;11.53;;;8.40;72.50;;;-142.21;100.00;112049.66;4995790;28;20431;-78
2021/12/11 08:52:03;;;;;;;11.80;10.70;;;8.30;72.60;;;-142.21;100.00;112049.66;4995838;28;20853;-79
2021/12/11 08:54:33;;;;;;;11.27;10.13;;;8.30;72.80;;;-142.21;100.00;112049.66;4996499;28;20466;-76
2021/12/11 08:57:05;;;;;;;10.70;9.70;;;8.40;73.00;;;-142.21;100.00;112049.66;4995325;28;20538;-80
2021/12/11 08:59:36;;;;;;;11.02;9.93;;;8.40;72.30;;;-142.21;100.00;112049.66;4996032;28;20510;-79
2021/12/11 09:02:12;;;;;;;11.83;10.77;;;8.40;72.90;;;-142.21;100.00;112049.66;5006043;28;20258;-80
2021/12/11 09:04:47;;;;;;;11.00;10.00;;;8.50;73.50;;;-142.21;100.00;112049.66;4995371;28;20439;-78
2021/12/11 09:07:20;;;;;;;10.90;9.90;;;8.40;73.30;;;-142.21;100.00;112049.66;5014778;28;20485;-77
2021/12/11 09:09:54;;;;;;;10.97;9.97;;;8.50;73.20;;;-142.21;100.00;112049.66;5012184;28;20809;-79
2021/12/11 09:12:28;;;;;;;11.20;10.20;;;8.60;72.90;;;-142.21;100.00;112049.66;4994662;28;20531;-78
2021/12/11 09:15:05;;;;;;;11.30;10.20;;;8.60;72.40;;;-142.21;100.00;112049.66;4995577;28;20484;-79
2021/12/11 09:17:51;;;;;;;11.60;10.07;;;8.60;72.10;;;-142.21;100.00;112049.66;4995612;28;20529;-79
2021/12/11 09:20:32;;;;;;;11.03;9.93;;;8.60;72.80;;;-142.21;100.00;112049.66;5001321;28;20502;-79
2021/12/11 09:23:06;;;;;;;11.40;10.40;;;8.60;72.10;;;-142.21;100.00;112049.66;4996248;28;20435;-80
2021/12/11 09:25:41;;;;;;;11.27;10.27;;;8.60;72.10;;;-142.21;100.00;112049.66;4998216;28;20451;-79
2021/12/11 09:28:16;;;;;;;11.00;10.00;;;8.60;72.10;;;-142.21;100.00;112049.66;4995258;28;20493;-79
2021/12/11 09:30:49;;;;;;;11.70;10.60;;;8.60;72.10;;;-142.21;100.00;112049.66;5004056;28;20525;-79
2021/12/11 09:33:23;;;;;;;11.13;10.03;;;8.50;72.00;;;-142.21;100.00;112049.66;4995539;28;20451;-80
2021/12/11 09:35:57;;;;;;;11.70;10.70;;;8.60;72.30;;;-142.21;100.00;112049.66;4994936;28;20988;-79
2021/12/11 09:38:28;;;;;;;12.20;10.97;;;8.60;72.60;;;-142.21;100.00;112049.66;4994328;28;20439;-79
2021/12/11 09:40:58;;;;;;;12.30;11.10;;;8.70;72.30;;;-142.21;100.00;112049.66;5002535;28;20471;-77
2021/12/11 09:43:45;;;;;;;12.70;11.50;;;8.80;72.30;;;-142.21;100.00;112049.66;4994175;28;20966;-78
2021/12/11 09:46:17;;;;;;;11.03;9.93;;;8.80;72.30;;;-142.21;100.00;112049.66;4994975;28;20459;-80
2021/12/11 09:48:48;;;;;;;11.97;10.87;;;8.90;72.00;;;-142.21;100.00;112049.66;5013052;28;20478;-79
2021/12/11 09:51:21;;;;;;;11.17;10.23;;;9.00;71.60;;;-142.21;100.00;112049.66;5014583;28;20852;-78
2021/12/11 09:53:54;;;;;;;11.57;10.47;;;9.10;71.30;;;-142.21;100.00;112049.66;5014164;28;20492;-78
2021/12/11 09:56:28;;;;;;;10.27;9.37;;;9.20;70.90;;;-142.21;100.00;112049.66;4997364;28;20458;-80
2021/12/11 09:58:59;;;;;;;11.67;10.60;;;9.30;70.40;;;-142.21;100.00;112049.66;4970199;28;20447;-79
2021/12/11 10:01:32;;;;;;;12.07;10.57;;;9.20;69.60;;;-142.21;100.00;112049.66;4994543;28;20844;-79
2021/12/11 10:04:09;;;;;;;12.00;10.90;;;9.50;69.70;;;-142.21;100.00;112049.66;4994415;28;20439;-79
2021/12/11 10:06:44;;;;;;;10.47;9.50;;;9.50;69.50;;;-142.21;100.00;112049.66;4993921;28;20439;-79
2021/12/11 10:09:19;;;;;;;11.63;10.63;;;9.70;69.40;;;-142.21;100.00;112049.66;4994639;28;20510;-80
2021/12/11 10:11:59;;;;;;;10.73;9.73;;;9.70;68.20;;;-142.21;100.00;112049.66;4993661;28;20526;-79
2021/12/11 10:14:37;;;;;;;10.13;9.23;;;9.70;68.10;;;-142.21;100.00;112049.66;4994134;28;20557;-79